Time;durP1;ratioP1;P1;durP2;ratioP2;P2;SDS_P1;SDS_P2;PMS_P1;PMS_P2;Temp;Humidity;BMP_temperature;BMP_pressure;BME280_temperature;BME280_humidity;BME280_pressure;Samples;Min_cycle;Max_cycle;Signal;HPM_P1;HPM_P2
2023/01/14 00:01:21;;;;;;;2.45;0.63;;;7.70;99.90;;;;;;5057273;28;20036;-78
2023/01/14 00:03:47;;;;;;;6.95;0.90;;;7.70;99.90;;;;;;5058800;28;20150;-78
2023/01/14 00:06:15;;;;;;;1.27;0.60;;;7.70;99.90;;;;;;5075089;28;20043;-77
2023/01/14 00:08:41;;;;;;;4.53;0.88;;;7.70;99.90;;;;;;5078841;28;20044;-77
2023/01/14 00:11:09;;;;;;;3.72;0.50;;;7.70;99.90;;;;;;5052324;28;20603;-78
2023/01/14 00:13:36;;;;;;;1.98;0.47;;;7.70;99.90;;;;;;5074426;28;20044;-77
2023/01/14 00:16:04;;;;;;;5.35;0.50;;;7.70;99.90;;;;;;5072243;28;20044;-77
2023/01/14 00:18:31;;;;;;;1.52;0.45;;;7.70;99.90;;;;;;5074879;28;20089;-78
2023/01/14 00:21:09;;;;;;;1.58;0.90;;;7.70;99.90;;;;;;5079369;28;20045;-77
2023/01/14 00:23:36;;;;;;;1.25;0.40;;;7.70;99.90;;;;;;5067936;28;20799;-77
2023/01/14 00:26:06;;;;;;;2.22;0.68;;;7.70;99.90;;;;;;5073396;28;20051;-77
2023/01/14 00:28:31;;;;;;;4.57;1.38;;;7.70;99.90;;;;;;5088791;28;20126;-77
2023/01/14 00:31:06;;;;;;;8.73;0.77;;;7.70;99.90;;;;;;5077094;28;20036;-77
2023/01/14 00:33:32;;;;;;;2.38;0.60;;;7.70;99.90;;;;;;5089694;28;20032;-78
2023/01/14 00:35:58;;;;;;;5.53;1.10;;;7.70;99.90;;;;;;5066667;28;20766;-77
2023/01/14 00:38:24;;;;;;;1.27;0.60;;;7.70;99.90;;;;;;5070972;28;20467;-77
2023/01/14 00:40:58;;;;;;;6.40;1.13;;;7.70;99.90;;;;;;5069430;28;20040;-77
2023/01/14 00:43:24;;;;;;;0.70;0.40;;;7.70;99.90;;;;;;5069882;28;20524;-77
2023/01/14 00:45:49;;;;;;;2.45;0.47;;;7.60;99.90;;;;;;5075247;28;20044;-77
2023/01/14 00:48:16;;;;;;;1.77;0.30;;;7.70;99.90;;;;;;5072496;28;20035;-77
2023/01/14 00:50:42;;;;;;;5.03;0.90;;;7.70;99.90;;;;;;5110024;27;20059;-77
2023/01/14 00:53:08;;;;;;;3.50;0.50;;;7.60;99.90;;;;;;5055087;28;20037;-77
2023/01/14 00:55:34;;;;;;;1.00;0.38;;;7.60;99.90;;;;;;5063805;28;20064;-77
2023/01/14 00:58:00;;;;;;;7.72;0.52;;;7.70;99.90;;;;;;5072930;28;20036;-77
2023/01/14 01:00:25;;;;;;;3.40;0.63;;;7.70;99.90;;;;;;5051483;28;20664;-77
2023/01/14 01:02:51;;;;;;;0.57;0.40;;;7.60;99.90;;;;;;5050969;28;20115;-77
2023/01/14 01:05:17;;;;;;;5.25;0.40;;;7.60;99.90;;;;;;5050630;28;20086;-77
2023/01/14 01:07:43;;;;;;;1.85;0.60;;;7.60;99.90;;;;;;5054163;28;20542;-77
2023/01/14 01:10:09;;;;;;;1.42;0.68;;;7.60;99.90;;;;;;5077281;28;20042;-77
2023/01/14 01:12:35;;;;;;;1.42;0.35;;;7.60;99.90;;;;;;5066184;28;20498;-77
2023/01/14 01:15:00;;;;;;;3.15;1.08;;;7.60;99.90;;;;;;5069393;28;20040;-78
2023/01/14 01:17:26;;;;;;;7.28;0.57;;;7.60;99.90;;;;;;5067511;28;20604;-78
2023/01/14 01:19:54;;;;;;;0.88;0.50;;;7.50;99.90;;;;;;5052915;28;20039;-77
2023/01/14 01:22:20;;;;;;;3.83;0.90;;;7.50;99.90;;;;;;5072012;28;20044;-77
2023/01/14 01:24:45;;;;;;;2.95;0.35;;;7.50;99.90;;;;;;5048973;28;20051;-78
2023/01/14 01:27:11;;;;;;;1.45;0.50;;;7.40;99.90;;;;;;5076549;28;20037;-78
2023/01/14 01:29:37;;;;;;;3.45;0.40;;;7.40;99.90;;;;;;5057259;28;20033;-78
2023/01/14 01:32:03;;;;;;;5.75;0.57;;;7.40;99.90;;;;;;5052335;28;20402;-78
2023/01/14 01:34:28;;;;;;;2.38;1.45;;;7.30;99.90;;;;;;5073912;28;20040;-77
2023/01/14 01:36:54;;;;;;;2.00;0.70;;;7.40;99.90;;;;;;5068892;28;20036;-78
2023/01/14 01:39:19;;;;;;;1.50;0.60;;;7.40;99.90;;;;;;5079514;28;20036;-78
2023/01/14 01:41:45;;;;;;;0.90;0.32;;;7.40;99.90;;;;;;5055469;28;20036;-78
2023/01/14 01:44:14;;;;;;;2.67;0.45;;;7.40;99.90;;;;;;5064379;28;20035;-77
2023/01/14 01:46:41;;;;;;;1.45;0.95;;;7.50;99.90;;;;;;5054450;28;20474;-78
2023/01/14 01:49:33;;;;;;;5.28;1.20;;;7.50;99.90;;;;;;5079607;28;20036;-77
2023/01/14 01:52:02;;;;;;;0.93;0.50;;;7.40;99.90;;;;;;5071182;28;20439;-78
2023/01/14 01:54:32;;;;;;;1.55;0.50;;;7.40;99.90;;;;;;5054882;28;20485;-78
2023/01/14 01:57:00;;;;;;;2.72;0.40;;;7.40;99.90;;;;;;5070604;28;20060;-77
2023/01/14 01:59:31;;;;;;;7.40;0.63;;;7.40;99.90;;;;;;5070214;28;20047;-77
2023/01/14 02:01:57;;;;;;;3.33;0.73;;;7.40;99.90;;;;;;5055493;28;20048;-78
2023/01/14 02:04:23;;;;;;;0.88;0.60;;;7.40;99.90;;;;;;5069140;28;20040;-77
2023/01/14 02:06:48;;;;;;;3.63;0.70;;;7.50;99.90;;;;;;5066703;28;20067;-78
2023/01/14 02:09:16;;;;;;;2.00;0.70;;;7.50;99.90;;;;;;5050361;28;20072;-78
2023/01/14 02:12:12;;;;;;;5.45;0.60;;;7.50;99.90;;;;;;5055573;28;20044;-78
2023/01/14 02:15:21;;;;;;;3.45;0.77;;;7.50;99.90;;;;;;5072389;28;20051;-77
2023/01/14 02:18:31;;;;;;;2.92;0.52;;;7.50;99.90;;;;;;5059197;28;20920;-77
2023/01/14 02:21:06;;;;;;;2.83;0.88;;;7.50;99.90;;;;;;5019127;28;20040;-78
2023/01/14 02:23:44;;;;;;;1.98;0.60;;;7.50;99.90;;;;;;5063923;28;20056;-77
2023/01/14 02:26:31;;;;;;;1.50;0.52;;;7.50;99.90;;;;;;5071922;28;20040;-77
2023/01/14 02:29:06;;;;;;;1.63;0.60;;;7.50;99.90;;;;;;5068978;28;20079;-78
2023/01/14 02:31:36;;;;;;;3.67;0.60;;;7.50;99.90;;;;;;5072481;28;20158;-78
2023/01/14 02:34:21;;;;;;;3.85;0.73;;;7.50;99.90;;;;;;5057481;28;20040;-78
2023/01/14 02:36:59;;;;;;;1.08;0.47;;;7.50;99.90;;;;;;5075467;28;20028;-78
2023/01/14 02:39:25;;;;;;;6.38;0.55;;;7.50;99.90;;;;;;5068834;28;20036;-77
2023/01/14 02:45:05;;;;;;;4.43;0.95;;;7.50;99.90;;;;;;5086196;28;20118;-77
2023/01/14 02:47:32;;;;;;;3.03;0.93;;;7.50;99.90;;;;;;5071478;28;20488;-77
2023/01/14 02:49:59;;;;;;;3.47;0.60;;;7.50;99.90;;;;;;5091274;28;20036;-77
2023/01/14 02:52:25;;;;;;;2.45;0.47;;;7.50;99.90;;;;;;5077142;28;20514;-77
2023/01/14 02:54:58;;;;;;;2.40;0.65;;;7.50;99.90;;;;;;5076415;28;20163;-77
2023/01/14 02:58:05;;;;;;;2.40;0.65;;;7.50;99.90;;;;;;5075820;28;20421;-77
2023/01/14 03:01:12;;;;;;;5.50;0.65;;;7.50;99.90;;;;;;5071701;28;20048;-77
2023/01/14 03:03:50;;;;;;;;;;;7.50;99.90;;;;;;5062734;28;20074;-77
2023/01/14 03:06:24;;;;;;;6.53;1.10;;;7.50;99.90;;;;;;5081932;28;19977;-77
2023/01/14 03:09:16;;;;;;;2.42;0.50;;;7.50;99.90;;;;;;5068637;28;20063;-77
2023/01/14 03:11:56;;;;;;;4.03;1.15;;;7.40;99.90;;;;;;5081031;28;20501;-77
2023/01/14 03:14:31;;;;;;;4.10;0.60;;;7.40;99.90;;;;;;5077974;28;20405;-77
2023/01/14 03:17:21;;;;;;;1.40;0.50;;;7.40;99.90;;;;;;5072062;28;20506;-77
2023/01/14 03:20:01;;;;;;;2.78;0.80;;;7.40;99.90;;;;;;5070569;28;20040;-77
2023/01/14 03:22:29;;;;;;;1.70;0.95;;;7.30;99.90;;;;;;5078687;28;20398;-77
2023/01/14 03:24:57;;;;;;;3.85;0.75;;;7.20;99.90;;;;;;5086536;28;20258;-77
2023/01/14 03:27:26;;;;;;;2.92;0.57;;;7.30;99.90;;;;;;5063197;28;20292;-77
2023/01/14 03:30:01;;;;;;;1.88;0.70;;;7.20;99.90;;;;;;5074462;28;20040;-77
2023/01/14 03:32:33;;;;;;;4.90;1.25;;;7.20;99.90;;;;;;5091032;28;20040;-78
2023/01/14 03:35:06;;;;;;;3.47;0.52;;;7.20;99.90;;;;;;5104459;28;20047;-77
2023/01/14 03:37:33;;;;;;;2.30;0.70;;;7.10;99.90;;;;;;5054470;28;20040;-77
2023/01/14 03:40:02;;;;;;;2.28;0.82;;;7.10;99.90;;;;;;5069950;28;20036;-77
2023/01/14 03:42:33;;;;;;;4.18;0.73;;;7.10;99.90;;;;;;5075923;28;20036;-77
2023/01/14 03:45:16;;;;;;;6.22;0.57;;;7.00;99.90;;;;;;5073283;28;20493;-77
2023/01/14 03:47:44;;;;;;;5.10;0.77;;;7.00;99.90;;;;;;5103867;28;20035;-77
2023/01/14 03:50:15;;;;;;;5.22;0.85;;;7.00;99.90;;;;;;5084233;28;20088;-77
2023/01/14 03:52:44;;;;;;;3.35;0.65;;;7.00;99.90;;;;;;5062789;28;20047;-77
2023/01/14 03:55:19;;;;;;;1.35;0.70;;;6.90;99.90;;;;;;5081954;28;20124;-77
2023/01/14 03:57:49;;;;;;;;;;;6.90;99.90;;;;;;5063257;28;20103;-77
2023/01/14 04:00:41;;;;;;;5.30;0.52;;;6.90;99.90;;;;;;5083243;28;19916;-77
2023/01/14 04:03:12;;;;;;;2.00;0.63;;;6.90;99.90;;;;;;5078327;28;20048;-77
2023/01/14 04:05:38;;;;;;;1.10;0.68;;;6.80;99.90;;;;;;5069469;28;20041;-77
2023/01/14 04:08:06;;;;;;;6.30;0.95;;;6.80;99.90;;;;;;5070151;28;20502;-77
2023/01/14 04:10:32;;;;;;;1.13;0.40;;;6.90;99.90;;;;;;5069704;28;20086;-77
2023/01/14 04:15:41;;;;;;;2.05;0.60;;;6.90;99.90;;;;;;5080785;28;20490;-77
2023/01/14 04:18:07;;;;;;;1.90;0.90;;;6.90;99.90;;;;;;5052118;28;20089;-77
2023/01/14 04:20:33;;;;;;;3.35;1.35;;;6.80;99.90;;;;;;5053139;28;20044;-77
2023/01/14 04:22:58;;;;;;;2.28;0.63;;;6.90;99.90;;;;;;5052998;28;20438;-77
2023/01/14 04:25:24;;;;;;;2.45;0.60;;;6.80;99.90;;;;;;5073166;28;20032;-77
2023/01/14 04:27:50;;;;;;;1.48;0.32;;;6.80;99.90;;;;;;5073405;28;20508;-77
2023/01/14 04:30:16;;;;;;;2.08;0.43;;;6.80;99.90;;;;;;5084584;28;20028;-77
2023/01/14 04:32:41;;;;;;;3.20;0.52;;;6.80;99.90;;;;;;5075985;28;20040;-77
2023/01/14 04:35:07;;;;;;;4.43;1.02;;;6.90;99.90;;;;;;5068398;28;20414;-77
2023/01/14 04:37:33;;;;;;;2.35;0.60;;;6.80;99.90;;;;;;5062974;28;20521;-77
2023/01/14 04:39:58;;;;;;;3.88;0.60;;;6.80;99.90;;;;;;5071957;28;20118;-77
2023/01/14 04:42:27;;;;;;;0.80;0.40;;;6.90;99.90;;;;;;5080237;28;20037;-77
2023/01/14 04:44:54;;;;;;;8.25;0.43;;;6.80;99.90;;;;;;5068875;28;20067;-77
2023/01/14 04:47:20;;;;;;;2.13;0.73;;;6.80;99.90;;;;;;5068261;28;20036;-77
2023/01/14 04:49:46;;;;;;;2.10;0.60;;;6.80;99.90;;;;;;5079717;28;20039;-77
2023/01/14 04:52:11;;;;;;;0.85;0.45;;;6.80;99.90;;;;;;5069769;28;20032;-77
2023/01/14 04:54:37;;;;;;;4.70;0.70;;;6.80;99.90;;;;;;5080730;28;20044;-77
2023/01/14 04:57:03;;;;;;;2.90;0.80;;;6.80;99.90;;;;;;5071364;28;20105;-77
2023/01/14 04:59:29;;;;;;;2.63;0.40;;;6.70;99.90;;;;;;5081667;28;20044;-77
2023/01/14 05:01:54;;;;;;;0.90;0.55;;;6.70;99.90;;;;;;5080503;28;20059;-77
2023/01/14 05:04:20;;;;;;;4.15;0.73;;;6.70;99.90;;;;;;5055199;28;20037;-77
2023/01/14 05:06:46;;;;;;;1.52;0.60;;;6.70;99.90;;;;;;5059911;28;20124;-77
2023/01/14 05:09:11;;;;;;;2.33;0.30;;;6.70;99.90;;;;;;5071169;28;20133;-77
2023/01/14 05:11:37;;;;;;;2.65;0.30;;;6.70;99.90;;;;;;5067287;28;20049;-77
2023/01/14 05:14:02;;;;;;;2.50;0.80;;;6.60;99.90;;;;;;5068344;28;20052;-77
2023/01/14 05:16:28;;;;;;;7.43;1.20;;;6.60;99.90;;;;;;5052028;28;20470;-77
2023/01/14 05:18:54;;;;;;;2.20;0.63;;;6.70;99.90;;;;;;5078965;28;20098;-77
2023/01/14 05:21:19;;;;;;;3.13;0.88;;;6.70;99.90;;;;;;5048821;28;20051;-77
2023/01/14 05:23:45;;;;;;;2.35;0.77;;;6.60;99.90;;;;;;5060227;28;20550;-77
2023/01/14 05:26:11;;;;;;;3.80;0.80;;;6.60;99.90;;;;;;5084879;28;20124;-77
2023/01/14 05:28:37;;;;;;;2.25;0.55;;;6.60;99.90;;;;;;5082599;28;20533;-77
2023/01/14 05:31:03;;;;;;;1.58;0.60;;;6.60;99.90;;;;;;5086124;28;20040;-77
2023/01/14 05:33:29;;;;;;;4.53;0.90;;;6.60;99.90;;;;;;5088986;28;20117;-77
2023/01/14 05:35:59;;;;;;;2.92;0.90;;;6.60;99.90;;;;;;5076296;28;20489;-77
2023/01/14 05:38:25;;;;;;;3.22;1.30;;;6.60;99.90;;;;;;5068393;28;20647;-76
2023/01/14 05:40:51;;;;;;;7.18;0.90;;;6.60;99.90;;;;;;5050874;28;20055;-77
2023/01/14 05:46:07;;;;;;;1.73;0.65;;;6.60;99.90;;;;;;5079233;28;20040;-77
2023/01/14 05:48:34;;;;;;;1.95;0.85;;;6.60;99.90;;;;;;5072313;28;20044;-77
2023/01/14 05:51:02;;;;;;;4.65;0.70;;;6.60;99.90;;;;;;5053595;28;20116;-77
2023/01/14 05:53:28;;;;;;;3.42;1.00;;;6.60;99.90;;;;;;5088553;28;20044;-77
2023/01/14 05:55:55;;;;;;;3.00;1.05;;;6.60;99.90;;;;;;5090605;28;20112;-77
2023/01/14 05:58:21;;;;;;;2.85;0.95;;;6.60;99.90;;;;;;5079146;28;20394;-77
2023/01/14 06:06:26;;;;;;;2.55;0.82;;;6.60;99.90;;;;;;5069535;28;20040;-77
2023/01/14 06:09:04;;;;;;;2.00;0.70;;;6.60;99.90;;;;;;5079280;28;20054;-77
2023/01/14 06:11:32;;;;;;;6.53;1.08;;;6.60;99.90;;;;;;5086463;28;20040;-77
2023/01/14 06:13:58;;;;;;;3.55;0.82;;;6.60;99.90;;;;;;5083110;28;20043;-77
2023/01/14 06:16:28;;;;;;;3.35;1.05;;;6.60;99.90;;;;;;5083216;28;20032;-77
2023/01/14 06:18:55;;;;;;;4.10;0.90;;;6.60;99.90;;;;;;5077506;28;20076;-77
2023/01/14 06:21:25;;;;;;;2.85;0.75;;;6.50;99.90;;;;;;5078574;28;20383;-77
2023/01/14 06:23:51;;;;;;;6.45;1.05;;;6.50;99.90;;;;;;5077702;28;20101;-77
2023/01/14 06:26:18;;;;;;;4.07;1.02;;;6.50;99.90;;;;;;5065121;28;20582;-77
2023/01/14 06:28:44;;;;;;;3.75;1.80;;;6.50;99.90;;;;;;5082735;28;20509;-77
2023/01/14 06:31:14;;;;;;;5.60;1.25;;;6.50;99.90;;;;;;5054741;28;20048;-77
2023/01/14 06:33:40;;;;;;;2.50;1.35;;;6.50;99.90;;;;;;5067679;28;20118;-77
2023/01/14 06:36:07;;;;;;;2.97;1.80;;;6.50;99.90;;;;;;5067618;28;20973;-77
2023/01/14 06:38:33;;;;;;;3.95;1.08;;;6.50;99.90;;;;;;5076580;28;20131;-77
2023/01/14 06:41:00;;;;;;;8.90;1.55;;;6.50;99.90;;;;;;5075259;28;20119;-77
2023/01/14 06:43:27;;;;;;;3.17;1.02;;;6.50;99.90;;;;;;5066951;28;20499;-77
2023/01/14 06:45:56;;;;;;;4.20;1.25;;;6.50;99.90;;;;;;5081234;28;20043;-77
2023/01/14 06:48:23;;;;;;;4.57;0.90;;;6.50;99.90;;;;;;5052548;28;20405;-77
2023/01/14 06:50:49;;;;;;;3.03;1.50;;;6.50;99.90;;;;;;5086313;28;20048;-77
2023/01/14 06:53:15;;;;;;;2.90;1.35;;;6.50;99.90;;;;;;5060647;28;20036;-78
2023/01/14 06:55:41;;;;;;;3.28;0.98;;;6.50;99.90;;;;;;5078116;28;20126;-78
2023/01/14 06:58:06;;;;;;;6.65;1.80;;;6.60;99.90;;;;;;5086776;28;20398;-78
2023/01/14 07:00:32;;;;;;;3.30;1.05;;;6.60;99.90;;;;;;5063259;28;20045;-78
2023/01/14 07:02:57;;;;;;;7.45;1.55;;;6.60;99.90;;;;;;5053371;28;20047;-77
2023/01/14 07:05:23;;;;;;;6.68;1.63;;;6.60;99.90;;;;;;5054839;28;20041;-78
2023/01/14 07:07:49;;;;;;;4.40;1.33;;;6.60;99.90;;;;;;5068262;28;20036;-78
2023/01/14 07:10:17;;;;;;;5.03;1.55;;;6.60;99.90;;;;;;5078333;28;20123;-78
2023/01/14 07:12:50;;;;;;;4.85;1.08;;;6.60;99.90;;;;;;5067780;28;20043;-78
2023/01/14 07:15:19;;;;;;;6.18;0.98;;;6.70;99.90;;;;;;5073365;28;20040;-78
2023/01/14 07:17:46;;;;;;;3.95;0.90;;;6.70;99.90;;;;;;5102338;28;20097;-77
2023/01/14 07:20:12;;;;;;;5.05;0.80;;;6.70;99.90;;;;;;5086535;28;20501;-77
2023/01/14 07:22:37;;;;;;;4.20;1.15;;;6.70;99.90;;;;;;5087884;28;20082;-78
2023/01/14 07:25:05;;;;;;;4.10;0.73;;;6.70;99.90;;;;;;5069452;28;20097;-78
2023/01/14 07:27:31;;;;;;;9.70;1.30;;;6.70;99.90;;;;;;5083437;28;20036;-77
2023/01/14 07:29:57;;;;;;;6.85;1.35;;;6.70;99.90;;;;;;5069763;28;20086;-78
2023/01/14 07:32:23;;;;;;;9.00;1.08;;;6.70;99.90;;;;;;5064908;28;20062;-78
2023/01/14 07:34:49;;;;;;;3.38;1.00;;;6.70;99.90;;;;;;5064305;28;20040;-78
2023/01/14 07:37:15;;;;;;;3.03;0.75;;;6.70;99.90;;;;;;5074800;28;20036;-78
2023/01/14 07:39:40;;;;;;;4.00;0.82;;;6.70;99.90;;;;;;5077654;28;20040;-77
2023/01/14 07:42:06;;;;;;;2.22;0.80;;;6.70;99.90;;;;;;5057609;28;20036;-79
2023/01/14 07:44:31;;;;;;;4.18;0.73;;;6.80;99.90;;;;;;5053623;28;20112;-78
2023/01/14 07:46:57;;;;;;;3.22;1.13;;;6.80;99.90;;;;;;5074474;28;20079;-78
2023/01/14 07:49:24;;;;;;;14.63;1.73;;;6.80;99.90;;;;;;5076437;28;20074;-78
2023/01/14 07:51:50;;;;;;;3.00;1.15;;;6.80;99.90;;;;;;5069305;28;20049;-77
2023/01/14 07:54:16;;;;;;;6.65;1.13;;;6.80;99.90;;;;;;5070793;28;20082;-78
2023/01/14 07:56:42;;;;;;;3.50;1.08;;;6.80;99.90;;;;;;5067442;28;20036;-77
2023/01/14 07:59:08;;;;;;;3.35;1.35;;;6.80;99.90;;;;;;5067521;28;20040;-78
2023/01/14 08:01:34;;;;;;;2.35;0.68;;;6.80;99.90;;;;;;5076131;28;20028;-78
2023/01/14 08:04:00;;;;;;;3.55;1.20;;;6.80;99.90;;;;;;5074992;28;20040;-77
2023/01/14 08:06:26;;;;;;;4.25;1.02;;;6.80;99.90;;;;;;5061968;28;20162;-78
2023/01/14 08:08:52;;;;;;;4.68;1.48;;;6.80;99.90;;;;;;5061505;28;20044;-77
2023/01/14 08:11:17;;;;;;;3.97;1.00;;;6.80;99.90;;;;;;5071850;28;20053;-77
2023/01/14 08:13:43;;;;;;;2.35;0.73;;;6.80;99.90;;;;;;5062817;28;20458;-76
2023/01/14 08:16:09;;;;;;;4.70;1.30;;;6.90;99.90;;;;;;5066317;28;20036;-78
2023/01/14 08:18:36;;;;;;;3.15;0.85;;;6.80;99.90;;;;;;5064910;28;20060;-77
2023/01/14 08:21:06;;;;;;;6.63;0.73;;;6.80;99.90;;;;;;5058218;28;20128;-78
2023/01/14 08:23:33;;;;;;;4.30;0.85;;;6.90;99.90;;;;;;5089384;28;20473;-78
2023/01/14 08:26:04;;;;;;;4.55;1.20;;;6.90;99.90;;;;;;5055317;28;20064;-79
2023/01/14 08:28:30;;;;;;;2.85;0.90;;;6.80;99.90;;;;;;5059607;28;20394;-79
2023/01/14 08:31:13;;;;;;;3.97;1.02;;;6.80;99.90;;;;;;5059559;28;20040;-79
2023/01/14 08:33:39;;;;;;;4.40;0.65;;;6.80;99.90;;;;;;5072617;28;20039;-79
2023/01/14 08:36:09;;;;;;;2.15;1.05;;;6.80;99.90;;;;;;5067388;28;20505;-78
2023/01/14 08:38:36;;;;;;;3.53;1.17;;;6.80;99.90;;;;;;5051638;28;20135;-78
2023/01/14 08:41:11;;;;;;;2.45;0.88;;;6.90;99.90;;;;;;5066381;28;20529;-79
2023/01/14 08:43:38;;;;;;;3.40;1.50;;;6.90;99.90;;;;;;5072716;28;20051;-80
2023/01/14 08:46:05;;;;;;;4.90;0.75;;;6.90;99.90;;;;;;5069932;28;20044;-80
2023/01/14 08:48:30;;;;;;;6.57;1.40;;;6.80;99.90;;;;;;5069761;28;20066;-79
2023/01/14 08:51:04;;;;;;;2.40;0.85;;;6.90;99.90;;;;;;5050640;28;20359;-79
2023/01/14 08:53:31;;;;;;;2.95;0.55;;;6.90;99.90;;;;;;5070468;28;20045;-87
2023/01/14 08:55:58;;;;;;;2.50;0.82;;;6.90;99.90;;;;;;5052895;28;20043;-79
2023/01/14 08:58:24;;;;;;;3.25;0.80;;;6.90;99.90;;;;;;5060869;28;20042;-77
2023/01/14 09:00:59;;;;;;;3.50;0.88;;;6.90;99.90;;;;;;5066963;28;20076;-77
2023/01/14 09:03:25;;;;;;;4.60;0.90;;;6.90;99.90;;;;;;5057945;28;20043;-78
2023/01/14 09:05:58;;;;;;;3.47;0.77;;;6.90;99.90;;;;;;5077274;28;20090;-78
2023/01/14 09:17:07;;;;;;;4.38;0.93;;;6.90;99.90;;;;;;5072082;28;20052;-78
2023/01/14 09:19:40;;;;;;;1.95;0.70;;;6.90;99.90;;;;;;5067308;28;20040;-78
2023/01/14 09:22:07;;;;;;;0.75;0.57;;;6.90;99.90;;;;;;5081229;28;20565;-78
2023/01/14 09:24:33;;;;;;;5.38;0.73;;;6.90;99.90;;;;;;5067860;28;20050;-77
2023/01/14 09:26:59;;;;;;;2.92;1.10;;;7.00;99.90;;;;;;5091819;28;20397;-77
2023/01/14 09:29:25;;;;;;;1.25;0.40;;;6.90;99.90;;;;;;5062262;28;20024;-78
2023/01/14 09:31:50;;;;;;;3.53;1.20;;;7.00;99.90;;;;;;5069134;28;20579;-78
2023/01/14 09:34:16;;;;;;;4.07;0.82;;;6.90;99.90;;;;;;5071720;28;20050;-78
2023/01/14 09:36:41;;;;;;;7.68;1.02;;;6.90;99.90;;;;;;5071826;28;20409;-78
2023/01/14 09:39:07;;;;;;;2.00;0.70;;;7.00;99.90;;;;;;5081707;28;20125;-78
2023/01/14 09:41:35;;;;;;;4.75;1.02;;;7.00;99.90;;;;;;5084648;28;20100;-78
2023/01/14 09:44:05;;;;;;;3.30;0.77;;;7.00;99.90;;;;;;5083036;28;20036;-77
2023/01/14 09:46:32;;;;;;;2.28;0.63;;;7.00;99.90;;;;;;5087656;28;20237;-77
2023/01/14 09:49:01;;;;;;;4.05;1.00;;;7.00;99.90;;;;;;5061143;28;20032;-75
2023/01/14 09:51:47;;;;;;;1.55;0.52;;;7.00;99.90;;;;;;5075662;28;20032;-79
2023/01/14 09:54:47;;;;;;;1.73;0.63;;;7.00;99.90;;;;;;5073028;28;20160;-77
2023/01/14 09:57:16;;;;;;;0.90;0.50;;;7.00;99.90;;;;;;5070178;28;20036;-78
2023/01/14 10:00:17;;;;;;;2.42;1.02;;;7.00;99.90;;;;;;5075814;28;20406;-78
2023/01/14 10:03:24;;;;;;;0.70;0.40;;;7.00;99.90;;;;;;5073466;28;20148;-78
2023/01/14 10:06:03;;;;;;;3.00;0.50;;;7.00;99.90;;;;;;5068355;28;20028;-77
2023/01/14 10:08:36;;;;;;;4.13;0.80;;;7.00;99.90;;;;;;5067420;28;21257;-77
2023/01/14 10:11:04;;;;;;;1.58;0.65;;;7.00;99.90;;;;;;5059174;28;20473;-77
2023/01/14 10:13:34;;;;;;;2.92;0.68;;;7.00;99.90;;;;;;5068600;28;20093;-77
2023/01/14 10:16:15;;;;;;;2.83;0.70;;;7.10;99.90;;;;;;5070818;28;20172;-77
2023/01/14 10:19:14;;;;;;;1.08;0.50;;;7.10;99.90;;;;;;5059659;28;20106;-77
2023/01/14 10:21:58;;;;;;;1.40;0.70;;;7.10;99.90;;;;;;5060976;28;20047;-77
2023/01/14 10:24:23;;;;;;;1.23;0.50;;;7.10;99.90;;;;;;5067487;28;20046;-77
2023/01/14 10:26:50;;;;;;;3.22;1.25;;;7.10;99.90;;;;;;5067760;28;20040;-78
2023/01/14 10:29:20;;;;;;;1.65;0.60;;;7.10;99.90;;;;;;5100437;28;20413;-78
2023/01/14 10:32:00;;;;;;;1.90;0.50;;;7.20;99.90;;;;;;5071116;28;20082;-78
2023/01/14 10:34:46;;;;;;;1.38;0.75;;;7.10;99.90;;;;;;5071947;28;20036;-78
2023/01/14 10:37:13;;;;;;;1.92;0.57;;;7.20;99.90;;;;;;5087138;28;20063;-77
2023/01/14 10:39:48;;;;;;;2.33;0.80;;;7.20;99.90;;;;;;5070295;28;20266;-77
2023/01/14 10:42:24;;;;;;;2.90;0.50;;;7.20;99.90;;;;;;5078288;28;20072;-77
2023/01/14 10:44:49;;;;;;;1.73;0.73;;;7.20;99.90;;;;;;5076216;28;20072;-77
2023/01/14 10:47:17;;;;;;;1.70;0.60;;;7.20;99.90;;;;;;5074437;28;20476;-77
2023/01/14 10:50:01;;;;;;;0.85;0.60;;;7.20;99.90;;;;;;5088637;28;20119;-78
2023/01/14 10:52:30;;;;;;;1.77;0.60;;;7.20;99.90;;;;;;5075171;28;20503;-78
2023/01/14 10:54:56;;;;;;;1.33;0.50;;;7.30;99.90;;;;;;5069053;28;20157;-78
2023/01/14 10:57:23;;;;;;;1.00;0.50;;;7.30;99.90;;;;;;5066636;28;20072;-77
2023/01/14 10:59:56;;;;;;;2.22;0.80;;;7.30;99.90;;;;;;5076939;28;20032;-77
2023/01/14 11:02:34;;;;;;;1.45;0.60;;;7.30;99.90;;;;;;5072470;28;20390;-77
2023/01/14 11:05:03;;;;;;;1.05;0.65;;;7.30;99.90;;;;;;5070586;28;20032;-77
2023/01/14 11:07:35;;;;;;;2.05;0.50;;;7.40;99.90;;;;;;5059581;28;20509;-77
2023/01/14 11:10:23;;;;;;;1.10;0.50;;;7.40;99.90;;;;;;5075659;28;20497;-78
2023/01/14 11:12:51;;;;;;;1.42;0.77;;;7.40;99.90;;;;;;5077298;28;20084;-78
2023/01/14 11:15:32;;;;;;;3.50;0.60;;;7.50;99.90;;;;;;5072824;28;20033;-78
2023/01/14 11:18:24;;;;;;;1.00;0.40;;;7.50;99.90;;;;;;5065077;28;20132;-78
2023/01/14 11:21:00;;;;;;;1.80;0.80;;;7.50;99.90;;;;;;5060677;28;20090;-78
2023/01/14 11:23:29;;;;;;;0.63;0.30;;;7.50;99.90;;;;;;5072341;28;20616;-78
2023/01/14 11:25:56;;;;;;;0.95;0.50;;;7.50;99.90;;;;;;5072572;28;20497;-78
2023/01/14 11:28:22;;;;;;;3.75;0.70;;;7.50;99.90;;;;;;5067134;28;20117;-78
2023/01/14 11:30:52;;;;;;;1.65;0.85;;;7.50;99.90;;;;;;5075396;28;20073;-78
2023/01/14 11:33:23;;;;;;;0.82;0.50;;;7.50;99.90;;;;;;5082078;28;20044;-78
2023/01/14 11:35:57;;;;;;;1.33;0.50;;;7.50;99.90;;;;;;5071108;28;20044;-78
2023/01/14 11:38:23;;;;;;;1.90;0.60;;;7.50;99.90;;;;;;5078583;28;20036;-79
2023/01/14 11:44:00;;;;;;;0.65;0.38;;;7.50;99.90;;;;;;5083044;28;20056;-79
2023/01/14 11:46:26;;;;;;;1.17;0.32;;;7.60;99.90;;;;;;5060066;28;20041;-78
2023/01/14 11:49:02;;;;;;;0.35;0.30;;;7.60;99.90;;;;;;5072858;28;20465;-78
2023/01/14 11:51:29;;;;;;;;;;;7.60;99.90;;;;;;5059375;28;20051;-78
2023/01/14 11:53:56;;;;;;;3.25;0.40;;;7.60;99.90;;;;;;5071923;28;20386;-77
2023/01/14 11:56:27;;;;;;;0.35;0.20;;;7.60;99.90;;;;;;5067828;28;20517;-77
2023/01/14 11:58:54;;;;;;;0.93;0.30;;;7.60;99.90;;;;;;5066496;28;20078;-78
2023/01/14 12:01:35;;;;;;;0.77;0.30;;;7.60;99.90;;;;;;5068367;28;20037;-78
2023/01/14 12:04:16;;;;;;;3.08;0.50;;;7.70;99.90;;;;;;5073847;28;20044;-78
2023/01/14 12:07:06;;;;;;;0.95;0.50;;;7.70;99.90;;;;;;5051876;28;20039;-78
2023/01/14 12:10:01;;;;;;;1.33;0.30;;;7.70;99.90;;;;;;5079565;28;20171;-78
2023/01/14 12:18:31;;;;;;;1.17;0.50;;;7.70;99.90;;;;;;5073747;28;20075;-79
2023/01/14 12:20:58;;;;;;;1.33;0.47;;;7.70;99.90;;;;;;5061660;28;20485;-80
2023/01/14 12:23:27;;;;;;;0.70;0.30;;;7.70;99.90;;;;;;5069202;28;20736;-79
2023/01/14 12:25:53;;;;;;;0.63;0.38;;;7.70;99.90;;;;;;5073125;28;20082;-79
2023/01/14 12:28:34;;;;;;;1.33;0.50;;;7.80;99.90;;;;;;5054176;28;20044;-79
2023/01/14 12:31:09;;;;;;;0.85;0.45;;;7.70;99.90;;;;;;5083462;27;20043;-79
2023/01/14 12:33:39;;;;;;;0.30;0.22;;;7.80;99.90;;;;;;5070229;28;20144;-80
2023/01/14 12:36:14;;;;;;;0.80;0.40;;;7.80;99.90;;;;;;5062167;28;20058;-79
2023/01/14 12:47:18;;;;;;;3.40;0.38;;;7.90;99.90;;;;;;5070320;28;20040;-80
2023/01/14 12:49:44;;;;;;;1.48;0.32;;;7.90;99.90;;;;;;5072871;28;20066;-79
2023/01/14 12:52:12;;;;;;;0.43;0.40;;;7.90;99.90;;;;;;5072124;28;20051;-79
2023/01/14 12:54:40;;;;;;;6.30;0.50;;;7.90;99.90;;;;;;5088958;28;20044;-79
2023/01/14 12:57:07;;;;;;;1.90;0.80;;;8.00;99.90;;;;;;5089166;28;20063;-79
2023/01/14 12:59:45;;;;;;;0.35;0.30;;;8.00;99.90;;;;;;5072512;28;20032;-79
2023/01/14 13:02:29;;;;;;;4.30;0.50;;;8.00;99.90;;;;;;5084470;28;20081;-79
2023/01/14 13:05:12;;;;;;;1.70;0.30;;;8.10;99.90;;;;;;5072174;28;20040;-79
2023/01/14 13:07:49;;;;;;;0.85;0.35;;;8.10;99.90;;;;;;5072286;28;20032;-79
2023/01/14 13:10:32;;;;;;;0.43;0.20;;;8.10;99.90;;;;;;5087478;28;20054;-79
2023/01/14 13:12:59;;;;;;;2.13;0.40;;;8.10;99.90;;;;;;5088944;28;20055;-79
2023/01/14 13:15:29;;;;;;;0.57;0.20;;;8.20;99.90;;;;;;5101276;27;20043;-79
2023/01/14 13:18:04;;;;;;;0.40;0.15;;;8.20;99.90;;;;;;5052119;28;20433;-79
2023/01/14 13:20:30;;;;;;;0.25;0.10;;;8.20;99.90;;;;;;5067960;28;20343;-79
2023/01/14 13:23:03;;;;;;;1.23;0.50;;;8.30;99.90;;;;;;5053412;28;20659;-80
2023/01/14 13:25:40;;;;;;;0.55;0.20;;;8.30;99.90;;;;;;5085853;28;20479;-79
2023/01/14 13:28:12;;;;;;;0.65;0.38;;;8.30;99.90;;;;;;5072314;28;20123;-79
2023/01/14 13:31:01;;;;;;;0.20;0.20;;;8.40;99.90;;;;;;5080320;28;20089;-79
2023/01/14 13:33:36;;;;;;;0.85;0.30;;;8.40;99.90;;;;;;5051418;28;20140;-79
2023/01/14 13:36:11;;;;;;;0.80;0.30;;;8.40;99.90;;;;;;5073775;28;20044;-80
2023/01/14 13:38:58;;;;;;;0.93;0.30;;;8.50;99.90;;;;;;5088902;28;20040;-80
2023/01/14 13:41:42;;;;;;;1.42;0.50;;;8.50;99.90;;;;;;5088153;28;20040;-80
2023/01/14 13:44:33;;;;;;;1.17;0.55;;;8.50;99.90;;;;;;5071063;28;20050;-80
2023/01/14 13:47:03;;;;;;;1.83;0.40;;;8.60;99.90;;;;;;5051725;28;20036;-81
2023/01/14 13:49:31;;;;;;;0.38;0.30;;;8.60;99.90;;;;;;5084710;28;20320;-81
2023/01/14 13:52:02;;;;;;;0.45;0.25;;;8.70;99.90;;;;;;5072808;28;20047;-80
2023/01/14 13:54:33;;;;;;;0.70;0.20;;;8.70;99.90;;;;;;5070618;28;20122;-81
2023/01/14 13:57:20;;;;;;;0.65;0.32;;;8.70;99.90;;;;;;5085474;28;20053;-81